createdAt,value
2019-04-01T00:02:04.219Z,14.22
2019-04-01T00:04:32.545Z,14.20
2019-04-01T00:07:00.532Z,14.17
2019-04-01T00:09:28.571Z,14.14
2019-04-01T00:11:58.736Z,14.11
2019-04-01T00:14:26.791Z,14.08
2019-04-01T00:16:54.806Z,14.04
2019-04-01T00:19:22.848Z,14.02
2019-04-01T00:21:50.896Z,13.99
2019-04-01T00:24:18.903Z,13.95
2019-04-01T00:26:47.040Z,13.91
2019-04-01T00:29:15.065Z,13.88
2019-04-01T00:31:43.178Z,13.85
2019-04-01T00:34:11.387Z,13.83
2019-04-01T00:36:39.413Z,13.79
2019-04-01T00:39:07.520Z,13.75
2019-04-01T00:41:43.529Z,13.74
2019-04-01T00:44:12.211Z,13.71
2019-04-01T00:46:41.262Z,13.66
2019-04-01T00:49:09.551Z,13.63
2019-04-01T00:51:37.588Z,13.61
2019-04-01T00:54:05.594Z,13.60
2019-04-01T00:56:33.686Z,13.58
2019-04-01T00:59:02.073Z,13.56
2019-04-01T01:01:30.453Z,13.55
2019-04-01T01:03:59.802Z,13.51
2019-04-01T01:06:28.517Z,13.50
2019-04-01T01:08:56.501Z,13.47
2019-04-01T01:11:24.588Z,13.45
2019-04-01T01:13:52.574Z,13.43
2019-04-01T01:16:20.620Z,13.41
2019-04-01T01:18:48.635Z,13.37
2019-04-01T01:21:16.691Z,13.35
2019-04-01T01:23:44.688Z,13.33
2019-04-01T01:26:15.774Z,13.30
2019-04-01T01:28:43.766Z,13.26
2019-04-01T01:31:11.804Z,13.22
2019-04-01T01:33:39.824Z,13.20
2019-04-01T01:36:07.953Z,13.17
2019-04-01T01:38:35.940Z,13.16
2019-04-01T01:41:03.990Z,13.11
2019-04-01T01:43:31.991Z,13.09
2019-04-01T01:46:00.339Z,13.05
2019-04-01T01:48:28.444Z,13.01
2019-04-01T01:50:56.818Z,13.00
2019-04-01T01:53:24.862Z,12.97
2019-04-01T01:55:52.863Z,12.96
2019-04-01T01:58:20.953Z,12.94
2019-04-01T02:00:49.283Z,12.91
2019-04-01T02:03:19.522Z,12.89
2019-04-01T02:05:48.797Z,12.87
2019-04-01T02:08:16.823Z,12.85
2019-04-01T02:10:45.170Z,12.83
2019-04-01T02:13:13.213Z,12.81
2019-04-01T02:15:41.506Z,12.77
2019-04-01T02:18:09.579Z,12.75
2019-04-01T02:20:37.581Z,12.73
2019-04-01T02:23:05.625Z,12.69
2019-04-01T02:25:33.634Z,12.66
2019-04-01T02:28:01.671Z,12.64
2019-04-01T02:30:30.292Z,12.60
2019-04-01T02:32:58.619Z,12.56
2019-04-01T02:35:26.637Z,12.53
2019-04-01T02:37:54.698Z,12.49
2019-04-01T02:40:23.005Z,12.46
2019-04-01T02:42:51.143Z,12.44
2019-04-01T02:45:19.142Z,12.40
2019-04-01T02:47:48.438Z,12.38
2019-04-01T02:50:16.491Z,12.34
2019-04-01T02:52:44.648Z,12.30
2019-04-01T02:57:48.972Z,12.33
2019-04-01T03:00:17.422Z,12.24
2019-04-01T03:02:45.459Z,12.23
2019-04-01T03:05:13.486Z,12.20
2019-04-01T03:07:41.517Z,12.16
2019-04-01T03:10:11.236Z,12.13
2019-04-01T03:12:39.313Z,12.12
2019-04-01T03:15:07.531Z,12.09
2019-04-01T03:17:35.585Z,12.07
2019-04-01T03:20:04.248Z,12.04
2019-04-01T03:22:32.323Z,12.01
2019-04-01T03:25:00.733Z,11.99
2019-04-01T03:27:28.870Z,11.97
2019-04-01T03:29:56.959Z,11.95
2019-04-01T03:32:24.967Z,11.91
2019-04-01T03:34:53.005Z,11.90
2019-04-01T03:37:21.104Z,11.86
2019-04-01T03:39:49.155Z,11.83
2019-04-01T03:42:17.156Z,11.81
2019-04-01T03:44:45.198Z,11.79
2019-04-01T03:47:14.407Z,11.75
2019-04-01T03:49:43.485Z,11.72
2019-04-01T03:52:11.681Z,11.69
2019-04-01T03:54:39.718Z,11.64
2019-04-01T03:57:08.245Z,11.61
2019-04-01T03:59:36.256Z,11.58
2019-04-01T04:02:04.266Z,11.54
2019-04-01T04:04:33.635Z,11.50
2019-04-01T04:07:02.313Z,11.46
2019-04-01T04:09:30.464Z,11.42
2019-04-01T04:11:58.895Z,11.40
2019-04-01T04:14:26.941Z,11.36
2019-04-01T04:16:55.278Z,11.33
2019-04-01T04:19:23.391Z,11.29
2019-04-01T04:21:51.408Z,11.27
2019-04-01T04:24:19.433Z,11.24
2019-04-01T04:26:47.738Z,11.21
2019-04-01T04:29:15.809Z,11.20
2019-04-01T04:31:44.929Z,11.17
2019-04-01T04:34:14.006Z,11.14
2019-04-01T04:36:42.050Z,11.12
2019-04-01T04:39:10.425Z,11.09
2019-04-01T04:41:38.448Z,11.06
2019-04-01T04:44:07.599Z,11.04
2019-04-01T04:46:37.193Z,11.01
2019-04-01T04:49:05.258Z,10.99
2019-04-01T04:51:33.217Z,10.98
2019-04-01T04:54:01.305Z,10.96
2019-04-01T04:56:29.388Z,10.92
2019-04-01T04:58:57.476Z,10.91
2019-04-01T05:01:25.543Z,10.89
2019-04-01T05:03:53.627Z,10.88
2019-04-01T05:06:21.974Z,10.86
2019-04-01T05:08:49.974Z,10.85
2019-04-01T05:11:18.104Z,10.83
2019-04-01T05:13:46.865Z,10.80
2019-04-01T05:16:14.949Z,10.79
2019-04-01T05:18:43.371Z,10.76
2019-04-01T05:21:14.072Z,10.73
2019-04-01T05:23:42.633Z,10.69
2019-04-01T05:26:11.748Z,10.67
2019-04-01T05:28:43.848Z,10.64
2019-04-01T05:31:14.680Z,10.64
2019-04-01T05:33:55.367Z,10.60
2019-04-01T05:36:20.628Z,10.60
2019-04-01T05:38:48.691Z,10.58
2019-04-01T05:41:16.779Z,10.56
2019-04-01T05:43:46.415Z,10.55
2019-04-01T05:46:14.492Z,10.54
2019-04-01T05:48:42.530Z,10.55
2019-04-01T05:51:10.615Z,10.54
2019-04-01T05:53:38.632Z,10.55
2019-04-01T05:56:07.518Z,10.54
2019-04-01T05:58:35.583Z,10.55
2019-04-01T06:01:08.392Z,10.56
2019-04-01T06:03:36.448Z,10.58
2019-04-01T06:06:04.702Z,10.59
2019-04-01T06:08:32.756Z,10.61
2019-04-01T06:11:00.880Z,10.64
2019-04-01T06:13:28.930Z,10.68
2019-04-01T06:15:57.217Z,10.70
2019-04-01T06:18:25.476Z,10.74
2019-04-01T06:20:53.546Z,10.77
2019-04-01T06:23:21.598Z,10.81
2019-04-01T06:25:49.664Z,10.85
2019-04-01T06:28:17.681Z,10.90
2019-04-01T06:30:45.770Z,10.93
2019-04-01T06:33:14.193Z,11.02
2019-04-01T06:35:42.265Z,11.09
2019-04-01T06:38:10.406Z,11.15
2019-04-01T06:40:38.495Z,11.21
2019-04-01T06:43:06.564Z,11.30
2019-04-01T06:45:34.762Z,11.37
2019-04-01T06:48:02.937Z,11.46
2019-04-01T06:50:31.114Z,11.55
2019-04-01T06:52:59.275Z,11.63
2019-04-01T06:55:27.334Z,11.71
2019-04-01T06:57:55.625Z,11.81
2019-04-01T07:00:23.660Z,11.91
2019-04-01T07:02:51.752Z,12.02
2019-04-01T07:05:20.087Z,12.13
2019-04-01T07:07:48.776Z,12.23
2019-04-01T07:10:16.777Z,12.36
2019-04-01T07:12:44.878Z,12.50
2019-04-01T07:15:13.011Z,12.64
2019-04-01T07:17:41.825Z,12.78
2019-04-01T07:20:10.191Z,12.95
2019-04-01T07:22:38.291Z,13.10
2019-04-01T07:25:07.572Z,13.29
2019-04-01T07:27:35.662Z,13.45
2019-04-01T07:30:04.797Z,13.63
2019-04-01T07:32:33.261Z,13.81
2019-04-01T07:35:02.290Z,13.98
2019-04-01T07:37:30.451Z,14.19
2019-04-01T07:39:58.595Z,14.41
2019-04-01T07:42:26.656Z,14.62
2019-04-01T07:44:54.686Z,14.84
2019-04-01T07:47:22.845Z,15.09
2019-04-01T07:49:51.165Z,15.35
2019-04-01T07:52:19.575Z,15.58
2019-04-01T07:54:47.611Z,15.81
2019-04-01T07:57:15.800Z,16.04
2019-04-01T07:59:44.241Z,16.25
2019-04-01T08:02:12.383Z,16.45
2019-04-01T08:04:40.712Z,16.68
2019-04-01T08:07:08.761Z,16.90
2019-04-01T08:09:36.798Z,17.17
2019-04-01T08:12:04.950Z,17.42
2019-04-01T08:14:32.978Z,17.66
2019-04-01T08:17:01.077Z,17.86
2019-04-01T08:19:29.661Z,18.08
2019-04-01T08:21:57.801Z,18.30
2019-04-01T08:24:25.843Z,18.54
2019-04-01T08:26:53.931Z,18.79
2019-04-01T08:29:30.193Z,19.05
2019-04-01T08:31:51.968Z,19.30
2019-04-01T08:34:19.959Z,19.53
2019-04-01T08:36:48.296Z,19.75
2019-04-01T08:39:16.381Z,19.95
2019-04-01T08:41:44.463Z,20.16
2019-04-01T08:44:15.144Z,20.37
2019-04-01T08:46:43.152Z,20.52
2019-04-01T08:49:11.530Z,20.67
2019-04-01T08:51:39.532Z,20.87
2019-04-01T08:54:07.624Z,21.07
2019-04-01T08:56:45.302Z,21.25
2019-04-01T08:59:15.071Z,21.50
2019-04-01T09:01:43.514Z,21.75
2019-04-01T09:04:11.572Z,22.03
2019-04-01T09:06:39.615Z,22.25
2019-04-01T09:09:07.703Z,22.47
2019-04-01T09:11:38.330Z,22.66
2019-04-01T09:14:05.762Z,22.82
2019-04-01T09:16:34.931Z,22.98
2019-04-01T09:19:03.368Z,23.13
2019-04-01T09:21:32.450Z,23.29
2019-04-01T09:24:00.736Z,23.47
2019-04-01T09:26:28.777Z,23.73
2019-04-01T09:28:56.860Z,24.00
2019-04-01T09:31:24.908Z,24.26
2019-04-01T09:33:52.980Z,24.53
2019-04-01T09:36:21.016Z,24.73
2019-04-01T09:38:50.204Z,24.91
2019-04-01T09:41:18.322Z,25.12
2019-04-01T09:43:47.888Z,25.32
2019-04-01T09:46:15.974Z,25.49
2019-04-01T09:48:44.055Z,25.63
2019-04-01T09:51:12.126Z,25.70
2019-04-01T09:53:40.189Z,25.78
2019-04-01T09:56:08.231Z,25.89
2019-04-01T09:58:36.312Z,26.01
2019-04-01T10:01:04.313Z,26.10
2019-04-01T10:03:32.401Z,26.24
2019-04-01T10:06:00.427Z,26.42
2019-04-01T10:08:41.532Z,26.55
2019-04-01T10:10:58.446Z,26.62
2019-04-01T10:13:26.544Z,26.68
2019-04-01T10:15:54.640Z,26.76
2019-04-01T10:18:22.941Z,26.89
2019-04-01T10:20:50.991Z,27.02
2019-04-01T10:23:19.069Z,27.15
2019-04-01T10:25:51.107Z,27.28
2019-04-01T10:28:18.174Z,27.41
2019-04-01T10:30:46.223Z,27.52
2019-04-01T10:33:15.453Z,27.58
2019-04-01T10:35:43.526Z,27.62
2019-04-01T10:38:11.976Z,27.61
2019-04-01T10:40:39.989Z,27.62
2019-04-01T10:43:08.086Z,27.60
2019-04-01T10:45:36.231Z,27.65
2019-04-01T10:48:04.350Z,27.73
2019-04-01T10:50:32.523Z,27.79
2019-04-01T10:53:00.778Z,27.83
2019-04-01T10:55:28.834Z,27.93
2019-04-01T10:57:57.527Z,28.08
2019-04-01T11:00:25.724Z,28.15
2019-04-01T11:02:53.964Z,28.21
2019-04-01T11:05:22.209Z,28.20
2019-04-01T11:07:51.114Z,28.25
2019-04-01T11:10:19.241Z,28.29
2019-04-01T11:12:47.329Z,28.34
2019-04-01T11:15:16.356Z,28.42
2019-04-01T11:17:44.452Z,28.54
2019-04-01T11:20:12.498Z,28.67
2019-04-01T11:22:40.529Z,28.81
2019-04-01T11:25:09.917Z,28.98
2019-04-01T11:27:38.226Z,29.09
2019-04-01T11:30:08.057Z,29.19
2019-04-01T11:32:36.590Z,29.30
2019-04-01T11:35:06.144Z,29.41
2019-04-01T11:37:34.505Z,29.54
2019-04-01T11:40:03.387Z,29.71
2019-04-01T11:42:31.521Z,29.85
2019-04-01T11:44:59.731Z,29.94
2019-04-01T11:47:27.781Z,29.94
2019-04-01T11:49:56.991Z,29.91
2019-04-01T11:52:25.207Z,29.87
2019-04-01T11:54:53.998Z,29.79
2019-04-01T11:57:22.376Z,29.79
2019-04-01T11:59:51.488Z,29.79
2019-04-01T12:02:19.587Z,29.83
2019-04-01T12:04:47.656Z,29.88
2019-04-01T12:07:15.769Z,29.96
2019-04-01T12:09:43.839Z,30.02
2019-04-01T12:12:23.619Z,30.06
2019-04-01T12:14:42.509Z,30.13
2019-04-01T12:17:10.607Z,30.24
2019-04-01T12:19:40.091Z,30.37
2019-04-01T12:22:08.331Z,30.45
2019-04-01T12:24:38.089Z,30.48
2019-04-01T12:27:06.451Z,30.54
2019-04-01T12:29:34.692Z,30.63
2019-04-01T12:32:02.798Z,30.74
2019-04-01T12:34:31.176Z,30.88
2019-04-01T12:36:59.187Z,31.02
2019-04-01T12:39:27.289Z,31.14
2019-04-01T12:41:55.335Z,31.23
2019-04-01T12:44:23.400Z,31.31
2019-04-01T12:46:52.900Z,31.35
2019-04-01T12:49:21.274Z,31.35
2019-04-01T12:51:50.419Z,31.42
2019-04-01T12:54:18.485Z,31.44
2019-04-01T12:56:46.501Z,31.42
2019-04-01T12:59:14.627Z,31.44
2019-04-01T13:01:42.706Z,31.51
2019-04-01T13:04:12.049Z,31.61
2019-04-01T13:06:40.398Z,31.68
2019-04-01T13:09:08.656Z,31.72
2019-04-01T13:11:38.553Z,31.74
2019-04-01T13:14:06.576Z,31.75
2019-04-01T13:16:34.701Z,31.76
2019-04-01T13:19:02.850Z,31.78
2019-04-01T13:21:34.501Z,31.80
2019-04-01T13:24:01.852Z,31.79
2019-04-01T13:26:31.078Z,31.75
2019-04-01T13:28:59.477Z,31.72
2019-04-01T13:31:27.615Z,31.69
2019-04-01T13:33:55.655Z,31.71
2019-04-01T13:36:23.773Z,31.73
2019-04-01T13:38:52.014Z,31.69
2019-04-01T13:41:20.135Z,31.64
2019-04-01T13:43:48.625Z,31.61
2019-04-01T13:46:18.419Z,31.61
2019-04-01T13:48:57.482Z,31.55
2019-04-01T13:51:17.553Z,31.47
2019-04-01T13:53:45.609Z,31.40
2019-04-01T13:56:13.771Z,31.32
2019-04-01T13:58:41.857Z,31.21
2019-04-01T14:01:10.059Z,31.10
2019-04-01T14:03:38.155Z,31.01
2019-04-01T14:06:06.218Z,30.90
2019-04-01T14:08:34.255Z,30.81
2019-04-01T14:11:05.830Z,30.71
2019-04-01T14:13:32.915Z,30.61
2019-04-01T14:16:01.101Z,30.53
2019-04-01T14:18:29.153Z,30.47
2019-04-01T14:20:57.223Z,30.39
2019-04-01T14:23:25.809Z,30.31
2019-04-01T14:25:53.901Z,30.21
2019-04-01T14:28:22.045Z,30.12
2019-04-01T14:30:50.156Z,30.07
2019-04-01T14:33:18.281Z,29.97
2019-04-01T14:35:46.621Z,29.84
2019-04-01T14:38:15.015Z,29.73
2019-04-01T14:40:43.158Z,29.56
2019-04-01T14:43:11.238Z,29.36
2019-04-01T14:45:39.695Z,29.15
2019-04-01T14:48:08.911Z,28.93
2019-04-01T14:50:37.062Z,28.76
2019-04-01T14:53:05.153Z,28.58
2019-04-01T14:55:33.237Z,28.45
2019-04-01T14:58:01.354Z,28.35
2019-04-01T15:00:29.627Z,28.24
2019-04-01T15:02:58.215Z,28.12
2019-04-01T15:05:26.242Z,28.00
2019-04-01T15:07:54.469Z,27.90
2019-04-01T15:10:22.487Z,27.78
2019-04-01T15:13:04.490Z,27.59
2019-04-01T15:15:20.916Z,27.44
2019-04-01T15:17:48.975Z,27.27
2019-04-01T15:20:19.059Z,27.11
2019-04-01T15:22:47.388Z,26.99
2019-04-01T15:25:15.532Z,26.87
2019-04-01T15:27:44.701Z,26.78
2019-04-01T15:30:14.485Z,26.68
2019-04-01T15:32:42.628Z,26.60
2019-04-01T15:35:10.722Z,26.51
2019-04-01T15:38:13.718Z,26.42
2019-04-01T15:40:50.267Z,26.30
2019-04-01T15:43:18.342Z,26.16
2019-04-01T15:45:47.358Z,26.06
2019-04-01T15:48:15.424Z,25.94
2019-04-01T15:50:43.413Z,25.83
2019-04-01T15:53:11.478Z,25.72
2019-04-01T15:55:39.473Z,25.62
2019-04-01T15:58:07.545Z,25.51
2019-04-01T16:00:36.169Z,25.42
2019-04-01T16:03:04.395Z,25.35
2019-04-01T16:05:34.120Z,25.27
2019-04-01T16:08:02.342Z,25.20
2019-04-01T16:10:30.383Z,25.15
2019-04-01T16:12:58.519Z,25.11
2019-04-01T16:15:26.543Z,25.05
2019-04-01T16:17:54.766Z,24.99
2019-04-01T16:20:23.149Z,24.94
2019-04-01T16:22:51.201Z,24.90
2019-04-01T16:25:19.207Z,24.86
2019-04-01T16:27:47.271Z,24.77
2019-04-01T16:30:15.449Z,24.69
2019-04-01T16:32:43.797Z,24.63
2019-04-01T16:35:12.075Z,24.58
2019-04-01T16:37:40.128Z,24.52
2019-04-01T16:40:08.230Z,24.45
2019-04-01T16:42:36.411Z,24.38
2019-04-01T16:45:08.605Z,24.31
2019-04-01T16:47:36.760Z,24.26
2019-04-01T16:50:07.221Z,24.18
2019-04-01T16:52:35.313Z,24.15
2019-04-01T16:55:07.227Z,24.12
2019-04-01T16:57:35.601Z,24.08
2019-04-01T17:00:08.620Z,24.04
2019-04-01T17:02:36.905Z,23.95
2019-04-01T17:05:05.683Z,23.89
2019-04-01T17:07:33.779Z,23.81
2019-04-01T17:10:02.057Z,23.75
2019-04-01T17:12:30.189Z,23.68
2019-04-01T17:14:58.347Z,23.64
2019-04-01T17:17:26.384Z,23.53
2019-04-01T17:19:55.786Z,23.43
2019-04-01T17:22:23.819Z,23.34
2019-04-01T17:24:51.970Z,23.29
2019-04-01T17:27:20.077Z,23.23
2019-04-01T17:29:48.105Z,23.20
2019-04-01T17:32:16.308Z,23.16
2019-04-01T17:34:44.992Z,23.14
2019-04-01T17:37:13.701Z,23.11
2019-04-01T17:39:41.782Z,23.05
2019-04-01T17:42:09.936Z,23.02
2019-04-01T17:44:37.946Z,22.98
2019-04-01T17:47:06.328Z,22.95
2019-04-01T17:49:34.771Z,22.93
2019-04-01T17:52:04.414Z,22.89
2019-04-01T17:54:32.502Z,22.87
2019-04-01T17:57:00.581Z,22.82
2019-04-01T17:59:28.630Z,22.77
2019-04-01T18:01:57.231Z,22.73
2019-04-01T18:04:25.427Z,22.66
2019-04-01T18:06:58.111Z,22.58
2019-04-01T18:09:24.849Z,22.51
2019-04-01T18:11:55.203Z,22.45
2019-04-01T18:14:24.356Z,22.38
2019-04-01T18:17:11.218Z,22.32
2019-04-01T18:19:40.099Z,22.25
2019-04-01T18:22:09.968Z,22.18
2019-04-01T18:24:38.277Z,22.10
2019-04-01T18:27:06.837Z,22.01
2019-04-01T18:29:42.691Z,21.94
2019-04-01T18:32:10.821Z,21.85
2019-04-01T18:34:39.042Z,21.76
2019-04-01T18:37:07.274Z,21.66
2019-04-01T18:39:48.379Z,21.56
2019-04-01T18:42:14.934Z,21.46
2019-04-01T18:44:43.563Z,21.33
2019-04-01T18:47:11.811Z,21.23
2019-04-01T18:49:39.874Z,21.13
2019-04-01T18:52:09.101Z,21.04
2019-04-01T18:54:37.600Z,20.95
2019-04-01T18:57:05.769Z,20.87
2019-04-01T18:59:33.805Z,20.79
2019-04-01T19:02:28.182Z,20.71
2019-04-01T19:04:56.252Z,20.66
2019-04-01T19:07:24.417Z,20.57
2019-04-01T19:10:05.248Z,20.51
2019-04-01T19:12:23.334Z,20.45
2019-04-01T19:14:51.390Z,20.36
2019-04-01T19:17:19.696Z,20.29
2019-04-01T19:19:48.797Z,20.23
2019-04-01T19:22:17.341Z,20.16
2019-04-01T19:24:45.425Z,20.10
2019-04-01T19:27:36.171Z,20.03
2019-04-01T19:30:05.819Z,19.94
2019-04-01T19:32:33.957Z,19.79
2019-04-01T19:35:02.118Z,19.69
2019-04-01T19:37:30.203Z,19.65
2019-04-01T19:39:58.252Z,19.58
2019-04-01T19:42:26.387Z,19.55
2019-04-01T19:44:54.412Z,19.50
2019-04-01T19:47:22.899Z,19.46
2019-04-01T19:49:50.934Z,19.41
2019-04-01T19:52:19.050Z,19.35
2019-04-01T19:54:47.092Z,19.29
2019-04-01T19:57:15.209Z,19.23
2019-04-01T19:59:43.378Z,19.16
2019-04-01T20:02:12.057Z,19.09
2019-04-01T20:04:45.413Z,19.02
2019-04-01T20:07:13.883Z,18.93
2019-04-01T20:09:42.008Z,18.84
2019-04-01T20:12:10.140Z,18.77
2019-04-01T20:14:39.274Z,18.71
2019-04-01T20:17:09.988Z,18.66
2019-04-01T20:19:38.663Z,18.63
2019-04-01T20:22:06.737Z,18.55
2019-04-01T20:24:34.785Z,18.49
2019-04-01T20:27:03.089Z,18.42
2019-04-01T20:29:31.233Z,18.36
2019-04-01T20:32:00.672Z,18.30
2019-04-01T20:34:31.962Z,18.23
2019-04-01T20:37:00.086Z,18.19
2019-04-01T20:39:28.358Z,18.11
2019-04-01T20:41:57.394Z,18.01
2019-04-01T20:44:25.461Z,17.92
2019-04-01T20:46:53.901Z,17.84
2019-04-01T20:49:22.443Z,17.77
2019-04-01T20:51:50.864Z,17.71
2019-04-01T20:54:18.898Z,17.64
2019-04-01T20:56:46.974Z,17.55
2019-04-01T20:59:15.001Z,17.49
2019-04-01T21:01:43.173Z,17.44
2019-04-01T21:04:11.227Z,17.38
2019-04-01T21:06:39.295Z,17.34
2019-04-01T21:09:08.499Z,17.30
2019-04-01T21:11:36.558Z,17.26
2019-04-01T21:14:04.950Z,17.19
2019-04-01T21:16:33.031Z,17.12
2019-04-01T21:19:01.072Z,17.03
2019-04-01T21:21:29.102Z,16.97
2019-04-01T21:23:59.809Z,16.90
2019-04-01T21:26:28.025Z,16.86
2019-04-01T21:28:56.086Z,16.80
2019-04-01T21:31:24.123Z,16.72
2019-04-01T21:33:52.484Z,16.63
2019-04-01T21:36:20.549Z,16.51
2019-04-01T21:38:48.627Z,16.44
2019-04-01T21:41:16.652Z,16.37
2019-04-01T21:43:44.698Z,16.27
2019-04-01T21:46:13.205Z,16.20
2019-04-01T21:48:42.300Z,16.16
2019-04-01T21:51:10.682Z,16.14
2019-04-01T21:53:38.762Z,16.10
2019-04-01T21:56:06.799Z,16.06
2019-04-01T21:58:34.887Z,16.01
2019-04-01T22:01:03.029Z,15.96
2019-04-01T22:03:33.110Z,15.92
2019-04-01T22:06:01.158Z,15.91
2019-04-01T22:08:29.280Z,15.87
2019-04-01T22:10:57.407Z,15.83
2019-04-01T22:13:26.376Z,15.77
2019-04-01T22:15:55.432Z,15.73
2019-04-01T22:18:23.526Z,15.67
2019-04-01T22:20:51.570Z,15.63
2019-04-01T22:23:19.637Z,15.61
2019-04-01T22:25:47.636Z,15.59
2019-04-01T22:28:15.670Z,15.59
2019-04-01T22:30:43.716Z,15.57
2019-04-01T22:33:11.769Z,15.55
2019-04-01T22:35:41.556Z,15.54
2019-04-01T22:38:09.752Z,15.52
2019-04-01T22:40:37.824Z,15.51
2019-04-01T22:43:06.012Z,15.47
2019-04-01T22:45:34.032Z,15.43
2019-04-01T22:48:02.096Z,15.41
2019-04-01T22:50:30.184Z,15.38
2019-04-01T22:52:58.334Z,15.38
2019-04-01T22:55:28.072Z,15.39
2019-04-01T22:57:56.272Z,15.38
2019-04-01T23:00:24.502Z,15.38
2019-04-01T23:02:52.586Z,15.40
2019-04-01T23:05:20.662Z,15.40
2019-04-01T23:07:48.717Z,15.40
2019-04-01T23:10:16.915Z,15.38
2019-04-01T23:12:44.978Z,15.37
2019-04-01T23:15:15.383Z,15.35
2019-04-01T23:17:43.893Z,15.34
2019-04-01T23:20:12.064Z,15.35
2019-04-01T23:22:40.106Z,15.34
2019-04-01T23:25:08.456Z,15.31
2019-04-01T23:27:36.465Z,15.28
2019-04-01T23:30:07.441Z,15.26
2019-04-01T23:32:36.793Z,15.26
2019-04-01T23:35:05.650Z,15.25
2019-04-01T23:37:33.700Z,15.25
2019-04-01T23:40:02.387Z,15.25
2019-04-01T23:42:31.424Z,15.25
2019-04-01T23:45:00.607Z,15.25
2019-04-01T23:47:30.427Z,15.27
2019-04-01T23:50:00.171Z,15.25
2019-04-01T23:52:28.223Z,15.26
2019-04-01T23:54:56.636Z,15.24
2019-04-01T23:57:25.955Z,15.23
2019-04-01T23:59:54.023Z,15.25
